sensor_id;sensor_type;location;lat;lon;timestamp;temperature;humidity
35463;DHT22;21578;47.892;9.970;2023-09-08T00:00:24;18.20;96.60
35463;DHT22;21578;47.892;9.970;2023-09-08T00:05:11;18.20;96.60
35463;DHT22;21578;47.892;9.970;2023-09-08T00:09:58;18.10;96.60
35463;DHT22;21578;47.892;9.970;2023-09-08T00:14:45;18.10;96.60
35463;DHT22;21578;47.892;9.970;2023-09-08T00:19:33;18.00;96.60
35463;DHT22;21578;47.892;9.970;2023-09-08T00:24:20;18.00;96.60
35463;DHT22;21578;47.892;9.970;2023-09-08T00:29:07;17.90;96.60
35463;DHT22;21578;47.892;9.970;2023-09-08T00:33:54;17.90;96.60
35463;DHT22;21578;47.892;9.970;2023-09-08T00:38:42;17.70;96.60
35463;DHT22;21578;47.892;9.970;2023-09-08T00:43:29;17.70;96.60
35463;DHT22;21578;47.892;9.970;2023-09-08T00:48:16;17.70;96.60
35463;DHT22;21578;47.892;9.970;2023-09-08T00:53:04;17.70;96.60
35463;DHT22;21578;47.892;9.970;2023-09-08T00:57:53;17.70;96.60
35463;DHT22;21578;47.892;9.970;2023-09-08T01:02:40;17.70;96.60
35463;DHT22;21578;47.892;9.970;2023-09-08T01:07:28;17.70;96.60
35463;DHT22;21578;47.892;9.970;2023-09-08T01:12:16;17.70;96.60
35463;DHT22;21578;47.892;9.970;2023-09-08T01:17:04;17.70;96.60
35463;DHT22;21578;47.892;9.970;2023-09-08T01:22:23;17.70;96.60
35463;DHT22;21578;47.892;9.970;2023-09-08T01:27:13;17.70;96.60
35463;DHT22;21578;47.892;9.970;2023-09-08T01:32:02;17.80;96.60
35463;DHT22;21578;47.892;9.970;2023-09-08T01:36:49;17.80;96.60
35463;DHT22;21578;47.892;9.970;2023-09-08T01:41:37;17.70;96.60
35463;DHT22;21578;47.892;9.970;2023-09-08T01:46:25;17.70;96.60
35463;DHT22;21578;47.892;9.970;2023-09-08T01:51:12;17.70;96.60
35463;DHT22;21578;47.892;9.970;2023-09-08T01:55:59;17.70;96.60
35463;DHT22;21578;47.892;9.970;2023-09-08T02:00:49;17.70;96.60
35463;DHT22;21578;47.892;9.970;2023-09-08T02:05:37;17.60;96.60
35463;DHT22;21578;47.892;9.970;2023-09-08T02:10:25;17.60;96.60
35463;DHT22;21578;47.892;9.970;2023-09-08T02:15:14;17.60;96.60
35463;DHT22;21578;47.892;9.970;2023-09-08T02:20:01;17.60;96.60
35463;DHT22;21578;47.892;9.970;2023-09-08T02:24:50;17.50;96.60
35463;DHT22;21578;47.892;9.970;2023-09-08T02:29:37;17.40;96.60
35463;DHT22;21578;47.892;9.970;2023-09-08T02:34:24;17.40;96.60
35463;DHT22;21578;47.892;9.970;2023-09-08T02:39:11;17.50;96.60
35463;DHT22;21578;47.892;9.970;2023-09-08T02:43:59;17.40;96.60
35463;DHT22;21578;47.892;9.970;2023-09-08T02:48:46;17.30;96.60
35463;DHT22;21578;47.892;9.970;2023-09-08T02:53:33;17.30;96.60
35463;DHT22;21578;47.892;9.970;2023-09-08T02:58:20;17.30;96.60
35463;DHT22;21578;47.892;9.970;2023-09-08T03:03:08;17.30;96.60
35463;DHT22;21578;47.892;9.970;2023-09-08T03:07:55;17.30;96.60
35463;DHT22;21578;47.892;9.970;2023-09-08T03:12:42;17.20;96.60
35463;DHT22;21578;47.892;9.970;2023-09-08T03:17:29;17.20;96.60
35463;DHT22;21578;47.892;9.970;2023-09-08T03:22:18;17.10;96.60
35463;DHT22;21578;47.892;9.970;2023-09-08T03:27:04;17.10;96.60
35463;DHT22;21578;47.892;9.970;2023-09-08T03:31:51;17.10;96.60
35463;DHT22;21578;47.892;9.970;2023-09-08T03:36:38;17.10;96.60
35463;DHT22;21578;47.892;9.970;2023-09-08T04:02:37;17.10;96.60
35463;DHT22;21578;47.892;9.970;2023-09-08T04:07:24;17.10;96.60
35463;DHT22;21578;47.892;9.970;2023-09-08T04:12:11;17.10;96.60
35463;DHT22;21578;47.892;9.970;2023-09-08T04:16:57;17.10;96.60
35463;DHT22;21578;47.892;9.970;2023-09-08T04:21:46;17.10;96.60
35463;DHT22;21578;47.892;9.970;2023-09-08T04:26:33;17.10;96.60
35463;DHT22;21578;47.892;9.970;2023-09-08T04:31:20;17.10;96.60
35463;DHT22;21578;47.892;9.970;2023-09-08T04:36:07;17.20;96.60
35463;DHT22;21578;47.892;9.970;2023-09-08T04:40:57;17.10;96.60
35463;DHT22;21578;47.892;9.970;2023-09-08T04:45:45;17.10;96.60
35463;DHT22;21578;47.892;9.970;2023-09-08T04:50:32;17.10;96.60
35463;DHT22;21578;47.892;9.970;2023-09-08T04:55:20;17.10;96.60
35463;DHT22;21578;47.892;9.970;2023-09-08T05:00:09;17.00;96.60
35463;DHT22;21578;47.892;9.970;2023-09-08T05:04:57;16.90;96.60
35463;DHT22;21578;47.892;9.970;2023-09-08T05:09:45;16.90;96.60
35463;DHT22;21578;47.892;9.970;2023-09-08T05:14:32;16.90;96.60
35463;DHT22;21578;47.892;9.970;2023-09-08T05:19:21;16.90;96.60
35463;DHT22;21578;47.892;9.970;2023-09-08T05:24:09;16.90;96.60
35463;DHT22;21578;47.892;9.970;2023-09-08T05:28:55;16.90;96.60
35463;DHT22;21578;47.892;9.970;2023-09-08T05:33:43;16.90;96.60
35463;DHT22;21578;47.892;9.970;2023-09-08T05:38:31;16.90;96.60
35463;DHT22;21578;47.892;9.970;2023-09-08T05:43:18;17.00;96.60
35463;DHT22;21578;47.892;9.970;2023-09-08T05:48:05;17.00;96.60
35463;DHT22;21578;47.892;9.970;2023-09-08T05:52:52;17.00;96.60
35463;DHT22;21578;47.892;9.970;2023-09-08T05:57:40;17.10;96.60
35463;DHT22;21578;47.892;9.970;2023-09-08T06:02:27;17.20;96.60
35463;DHT22;21578;47.892;9.970;2023-09-08T06:07:14;17.30;96.60
35463;DHT22;21578;47.892;9.970;2023-09-08T06:12:01;17.30;96.60
35463;DHT22;21578;47.892;9.970;2023-09-08T06:16:49;17.40;96.60
35463;DHT22;21578;47.892;9.970;2023-09-08T06:21:36;17.50;96.60
35463;DHT22;21578;47.892;9.970;2023-09-08T06:26:23;17.60;96.60
35463;DHT22;21578;47.892;9.970;2023-09-08T06:31:10;17.80;96.60
35463;DHT22;21578;47.892;9.970;2023-09-08T06:35:58;18.00;96.60
35463;DHT22;21578;47.892;9.970;2023-09-08T06:40:45;18.30;96.60
35463;DHT22;21578;47.892;9.970;2023-09-08T06:45:33;18.40;96.60
35463;DHT22;21578;47.892;9.970;2023-09-08T06:50:20;18.40;96.60
35463;DHT22;21578;47.892;9.970;2023-09-08T06:55:09;18.50;96.60
35463;DHT22;21578;47.892;9.970;2023-09-08T06:59:56;18.70;96.60
35463;DHT22;21578;47.892;9.970;2023-09-08T07:04:43;18.70;96.60
35463;DHT22;21578;47.892;9.970;2023-09-08T07:09:29;18.90;96.60
35463;DHT22;21578;47.892;9.970;2023-09-08T07:14:18;19.00;96.60
35463;DHT22;21578;47.892;9.970;2023-09-08T07:19:05;19.30;96.60
35463;DHT22;21578;47.892;9.970;2023-09-08T07:23:52;19.40;96.60
35463;DHT22;21578;47.892;9.970;2023-09-08T07:28:39;19.50;96.60
35463;DHT22;21578;47.892;9.970;2023-09-08T07:33:27;19.50;96.60
35463;DHT22;21578;47.892;9.970;2023-09-08T07:38:14;19.70;96.60
35463;DHT22;21578;47.892;9.970;2023-09-08T07:43:01;19.80;96.60
35463;DHT22;21578;47.892;9.970;2023-09-08T07:47:48;19.80;96.60
35463;DHT22;21578;47.892;9.970;2023-09-08T07:52:36;20.00;96.60
35463;DHT22;21578;47.892;9.970;2023-09-08T07:57:23;20.20;96.60
35463;DHT22;21578;47.892;9.970;2023-09-08T08:02:10;20.40;96.60
35463;DHT22;21578;47.892;9.970;2023-09-08T08:06:57;20.50;96.60
35463;DHT22;21578;47.892;9.970;2023-09-08T08:11:45;20.70;96.60
35463;DHT22;21578;47.892;9.970;2023-09-08T08:16:32;20.70;96.60
35463;DHT22;21578;47.892;9.970;2023-09-08T08:21:20;20.90;96.60
35463;DHT22;21578;47.892;9.970;2023-09-08T08:26:08;21.00;96.60
35463;DHT22;21578;47.892;9.970;2023-09-08T08:30:56;21.20;96.60
35463;DHT22;21578;47.892;9.970;2023-09-08T08:35:48;21.30;96.60
35463;DHT22;21578;47.892;9.970;2023-09-08T08:40:38;21.40;96.60
35463;DHT22;21578;47.892;9.970;2023-09-08T08:45:26;21.60;96.60
35463;DHT22;21578;47.892;9.970;2023-09-08T08:50:14;21.70;96.60
35463;DHT22;21578;47.892;9.970;2023-09-08T08:55:02;21.90;96.60
35463;DHT22;21578;47.892;9.970;2023-09-08T08:59:50;22.10;96.60
35463;DHT22;21578;47.892;9.970;2023-09-08T09:04:38;22.20;96.60
35463;DHT22;21578;47.892;9.970;2023-09-08T09:09:26;22.20;96.60
35463;DHT22;21578;47.892;9.970;2023-09-08T09:14:14;22.30;96.60
35463;DHT22;21578;47.892;9.970;2023-09-08T09:19:02;22.40;96.60
35463;DHT22;21578;47.892;9.970;2023-09-08T09:23:49;22.50;96.60
35463;DHT22;21578;47.892;9.970;2023-09-08T09:28:47;22.70;96.60
35463;DHT22;21578;47.892;9.970;2023-09-08T09:33:34;22.80;96.60
35463;DHT22;21578;47.892;9.970;2023-09-08T09:38:22;22.90;96.60
35463;DHT22;21578;47.892;9.970;2023-09-08T09:43:10;23.00;96.60
35463;DHT22;21578;47.892;9.970;2023-09-08T09:47:59;23.10;96.60
35463;DHT22;21578;47.892;9.970;2023-09-08T09:52:46;23.30;96.60
35463;DHT22;21578;47.892;9.970;2023-09-08T09:57:35;23.40;96.60
35463;DHT22;21578;47.892;9.970;2023-09-08T10:02:23;23.50;96.60
35463;DHT22;21578;47.892;9.970;2023-09-08T10:07:12;23.70;96.60
35463;DHT22;21578;47.892;9.970;2023-09-08T10:12:03;23.90;96.60
35463;DHT22;21578;47.892;9.970;2023-09-08T10:16:51;24.10;96.60
35463;DHT22;21578;47.892;9.970;2023-09-08T10:21:45;24.30;96.60
35463;DHT22;21578;47.892;9.970;2023-09-08T10:26:34;24.10;96.60
35463;DHT22;21578;47.892;9.970;2023-09-08T10:31:25;24.00;96.60
35463;DHT22;21578;47.892;9.970;2023-09-08T10:36:13;24.00;96.60
35463;DHT22;21578;47.892;9.970;2023-09-08T10:41:27;24.20;96.60
35463;DHT22;21578;47.892;9.970;2023-09-08T10:46:23;24.30;95.60
35463;DHT22;21578;47.892;9.970;2023-09-08T10:51:12;24.60;95.70
35463;DHT22;21578;47.892;9.970;2023-09-08T10:56:00;24.90;93.10
35463;DHT22;21578;47.892;9.970;2023-09-08T11:00:50;25.00;93.60
35463;DHT22;21578;47.892;9.970;2023-09-08T11:05:41;25.00;92.70
35463;DHT22;21578;47.892;9.970;2023-09-08T11:10:29;25.40;90.70
35463;DHT22;21578;47.892;9.970;2023-09-08T11:15:16;25.70;89.70
35463;DHT22;21578;47.892;9.970;2023-09-08T11:20:05;26.00;87.40
35463;DHT22;21578;47.892;9.970;2023-09-08T11:24:57;25.90;88.00
35463;DHT22;21578;47.892;9.970;2023-09-08T11:29:44;26.00;87.40
35463;DHT22;21578;47.892;9.970;2023-09-08T11:34:31;26.00;87.00
35463;DHT22;21578;47.892;9.970;2023-09-08T11:39:22;25.90;87.10
35463;DHT22;21578;47.892;9.970;2023-09-08T11:44:15;26.20;86.70
35463;DHT22;21578;47.892;9.970;2023-09-08T11:49:04;26.40;85.90
35463;DHT22;21578;47.892;9.970;2023-09-08T11:53:51;26.50;86.10
35463;DHT22;21578;47.892;9.970;2023-09-08T11:58:38;26.80;84.00
35463;DHT22;21578;47.892;9.970;2023-09-08T12:03:27;27.10;82.90
35463;DHT22;21578;47.892;9.970;2023-09-08T12:08:14;27.40;82.50
35463;DHT22;21578;47.892;9.970;2023-09-08T12:13:01;27.20;81.50
35463;DHT22;21578;47.892;9.970;2023-09-08T12:17:48;27.50;80.70
35463;DHT22;21578;47.892;9.970;2023-09-08T12:22:46;27.70;80.80
35463;DHT22;21578;47.892;9.970;2023-09-08T12:27:36;28.00;78.70
35463;DHT22;21578;47.892;9.970;2023-09-08T12:32:24;28.00;78.90
35463;DHT22;21578;47.892;9.970;2023-09-08T12:37:11;28.20;77.90
35463;DHT22;21578;47.892;9.970;2023-09-08T12:41:59;28.50;77.30
35463;DHT22;21578;47.892;9.970;2023-09-08T12:46:46;28.50;77.30
35463;DHT22;21578;47.892;9.970;2023-09-08T12:51:33;28.40;78.00
35463;DHT22;21578;47.892;9.970;2023-09-08T12:56:20;28.10;78.20
35463;DHT22;21578;47.892;9.970;2023-09-08T13:01:08;28.10;77.10
35463;DHT22;21578;47.892;9.970;2023-09-08T13:05:55;28.60;76.00
35463;DHT22;21578;47.892;9.970;2023-09-08T13:10:42;29.00;75.50
35463;DHT22;21578;47.892;9.970;2023-09-08T13:15:29;29.30;73.50
35463;DHT22;21578;47.892;9.970;2023-09-08T13:20:17;29.30;73.20
35463;DHT22;21578;47.892;9.970;2023-09-08T13:25:06;29.30;72.60
35463;DHT22;21578;47.892;9.970;2023-09-08T13:29:53;29.60;72.20
35463;DHT22;21578;47.892;9.970;2023-09-08T13:34:40;29.00;70.30
35463;DHT22;21578;47.892;9.970;2023-09-08T13:39:30;28.90;70.60
35463;DHT22;21578;47.892;9.970;2023-09-08T13:44:17;29.00;70.20
35463;DHT22;21578;47.892;9.970;2023-09-08T13:49:04;29.40;71.60
35463;DHT22;21578;47.892;9.970;2023-09-08T13:53:51;29.50;71.60
35463;DHT22;21578;47.892;9.970;2023-09-08T13:58:39;29.60;71.80
35463;DHT22;21578;47.892;9.970;2023-09-08T14:03:30;29.70;69.00
35463;DHT22;21578;47.892;9.970;2023-09-08T14:08:17;29.80;69.40
35463;DHT22;21578;47.892;9.970;2023-09-08T14:13:04;29.90;71.00
35463;DHT22;21578;47.892;9.970;2023-09-08T14:17:53;30.20;70.80
35463;DHT22;21578;47.892;9.970;2023-09-08T14:22:40;30.00;70.00
35463;DHT22;21578;47.892;9.970;2023-09-08T14:27:27;29.60;69.70
35463;DHT22;21578;47.892;9.970;2023-09-08T14:32:14;29.70;70.20
35463;DHT22;21578;47.892;9.970;2023-09-08T14:37:03;29.90;69.80
35463;DHT22;21578;47.892;9.970;2023-09-08T14:41:50;30.00;69.40
35463;DHT22;21578;47.892;9.970;2023-09-08T14:46:38;29.80;70.20
35463;DHT22;21578;47.892;9.970;2023-09-08T14:51:25;29.60;70.00
35463;DHT22;21578;47.892;9.970;2023-09-08T14:56:13;29.40;70.40
35463;DHT22;21578;47.892;9.970;2023-09-08T15:01:01;29.10;71.40
35463;DHT22;21578;47.892;9.970;2023-09-08T15:05:49;28.60;72.50
35463;DHT22;21578;47.892;9.970;2023-09-08T15:10:36;28.60;72.70
35463;DHT22;21578;47.892;9.970;2023-09-08T15:15:24;28.60;73.90
35463;DHT22;21578;47.892;9.970;2023-09-08T15:20:11;28.60;74.40
35463;DHT22;21578;47.892;9.970;2023-09-08T15:24:59;28.60;75.10
35463;DHT22;21578;47.892;9.970;2023-09-08T15:29:46;28.70;74.20
35463;DHT22;21578;47.892;9.970;2023-09-08T15:34:35;28.50;74.90
35463;DHT22;21578;47.892;9.970;2023-09-08T15:39:22;28.50;75.00
35463;DHT22;21578;47.892;9.970;2023-09-08T15:44:09;28.30;75.10
35463;DHT22;21578;47.892;9.970;2023-09-08T15:48:56;28.10;76.40
35463;DHT22;21578;47.892;9.970;2023-09-08T15:53:44;28.10;76.40
35463;DHT22;21578;47.892;9.970;2023-09-08T15:58:31;28.00;77.10
35463;DHT22;21578;47.892;9.970;2023-09-08T16:03:18;27.90;78.20
35463;DHT22;21578;47.892;9.970;2023-09-08T16:08:05;27.80;77.70
35463;DHT22;21578;47.892;9.970;2023-09-08T16:12:54;27.80;78.30
35463;DHT22;21578;47.892;9.970;2023-09-08T16:17:43;27.80;78.20
35463;DHT22;21578;47.892;9.970;2023-09-08T16:22:29;27.80;77.90
35463;DHT22;21578;47.892;9.970;2023-09-08T16:27:17;27.70;78.50
35463;DHT22;21578;47.892;9.970;2023-09-08T16:32:05;27.70;79.10
35463;DHT22;21578;47.892;9.970;2023-09-08T16:36:52;27.70;79.30
35463;DHT22;21578;47.892;9.970;2023-09-08T16:41:39;27.50;79.10
35463;DHT22;21578;47.892;9.970;2023-09-08T16:46:26;27.40;80.10
35463;DHT22;21578;47.892;9.970;2023-09-08T16:51:14;27.30;80.30
35463;DHT22;21578;47.892;9.970;2023-09-08T16:56:02;27.30;81.10
35463;DHT22;21578;47.892;9.970;2023-09-08T17:00:54;27.20;82.20
35463;DHT22;21578;47.892;9.970;2023-09-08T17:05:41;27.10;82.40
35463;DHT22;21578;47.892;9.970;2023-09-08T17:10:29;27.00;81.90
35463;DHT22;21578;47.892;9.970;2023-09-08T17:15:16;26.80;83.40
35463;DHT22;21578;47.892;9.970;2023-09-08T17:20:04;26.70;83.90
35463;DHT22;21578;47.892;9.970;2023-09-08T17:24:51;26.60;84.00
35463;DHT22;21578;47.892;9.970;2023-09-08T17:29:39;26.50;84.60
35463;DHT22;21578;47.892;9.970;2023-09-08T17:34:26;26.40;84.80
35463;DHT22;21578;47.892;9.970;2023-09-08T17:39:13;26.10;86.10
35463;DHT22;21578;47.892;9.970;2023-09-08T17:44:01;25.90;86.70
35463;DHT22;21578;47.892;9.970;2023-09-08T17:48:49;25.70;87.10
35463;DHT22;21578;47.892;9.970;2023-09-08T17:53:36;25.50;87.70
35463;DHT22;21578;47.892;9.970;2023-09-08T17:58:23;25.30;88.40
35463;DHT22;21578;47.892;9.970;2023-09-08T18:03:10;25.10;89.40
35463;DHT22;21578;47.892;9.970;2023-09-08T18:07:58;25.00;90.30
35463;DHT22;21578;47.892;9.970;2023-09-08T18:12:45;24.80;91.20
35463;DHT22;21578;47.892;9.970;2023-09-08T18:17:32;24.60;91.60
35463;DHT22;21578;47.892;9.970;2023-09-08T18:22:19;24.50;92.00
35463;DHT22;21578;47.892;9.970;2023-09-08T18:27:07;24.30;92.90
35463;DHT22;21578;47.892;9.970;2023-09-08T18:31:54;24.20;93.80
35463;DHT22;21578;47.892;9.970;2023-09-08T18:36:41;24.00;94.70
35463;DHT22;21578;47.892;9.970;2023-09-08T18:41:28;23.80;95.60
35463;DHT22;21578;47.892;9.970;2023-09-08T18:46:17;23.70;96.60
35463;DHT22;21578;47.892;9.970;2023-09-08T18:51:04;23.50;96.60
35463;DHT22;21578;47.892;9.970;2023-09-08T18:55:51;23.30;96.60
35463;DHT22;21578;47.892;9.970;2023-09-08T19:00:42;23.20;96.60
35463;DHT22;21578;47.892;9.970;2023-09-08T19:05:31;23.10;96.60
35463;DHT22;21578;47.892;9.970;2023-09-08T19:10:18;23.00;96.60
35463;DHT22;21578;47.892;9.970;2023-09-08T19:15:06;23.00;96.60
35463;DHT22;21578;47.892;9.970;2023-09-08T19:19:53;22.90;96.60
35463;DHT22;21578;47.892;9.970;2023-09-08T19:24:42;22.80;96.60
35463;DHT22;21578;47.892;9.970;2023-09-08T19:29:29;22.70;96.60
35463;DHT22;21578;47.892;9.970;2023-09-08T19:34:16;22.60;96.60
35463;DHT22;21578;47.892;9.970;2023-09-08T19:39:03;22.50;96.60
35463;DHT22;21578;47.892;9.970;2023-09-08T19:43:51;22.50;96.60
35463;DHT22;21578;47.892;9.970;2023-09-08T19:48:38;22.40;96.60
35463;DHT22;21578;47.892;9.970;2023-09-08T19:53:25;22.30;96.60
35463;DHT22;21578;47.892;9.970;2023-09-08T19:58:12;22.20;96.60
35463;DHT22;21578;47.892;9.970;2023-09-08T20:03:01;22.20;96.60
35463;DHT22;21578;47.892;9.970;2023-09-08T20:07:49;22.10;96.60
35463;DHT22;21578;47.892;9.970;2023-09-08T20:12:36;22.10;96.60
35463;DHT22;21578;47.892;9.970;2023-09-08T20:17:24;22.00;96.60
35463;DHT22;21578;47.892;9.970;2023-09-08T20:22:12;21.90;96.60
35463;DHT22;21578;47.892;9.970;2023-09-08T20:26:59;21.90;96.60
35463;DHT22;21578;47.892;9.970;2023-09-08T20:31:46;21.80;96.60
35463;DHT22;21578;47.892;9.970;2023-09-08T20:36:33;21.70;96.60
35463;DHT22;21578;47.892;9.970;2023-09-08T20:41:21;21.60;96.60
35463;DHT22;21578;47.892;9.970;2023-09-08T20:46:08;21.60;96.60
35463;DHT22;21578;47.892;9.970;2023-09-08T20:50:59;21.50;96.60
35463;DHT22;21578;47.892;9.970;2023-09-08T20:55:46;21.40;96.60
35463;DHT22;21578;47.892;9.970;2023-09-08T21:00:35;21.40;96.60
35463;DHT22;21578;47.892;9.970;2023-09-08T21:05:22;21.30;96.60
35463;DHT22;21578;47.892;9.970;2023-09-08T21:10:09;21.30;96.60
35463;DHT22;21578;47.892;9.970;2023-09-08T21:14:56;21.20;96.60
35463;DHT22;21578;47.892;9.970;2023-09-08T21:19:44;21.20;96.60
35463;DHT22;21578;47.892;9.970;2023-09-08T21:24:31;21.10;96.60
35463;DHT22;21578;47.892;9.970;2023-09-08T21:29:18;21.10;96.60
35463;DHT22;21578;47.892;9.970;2023-09-08T21:34:05;21.00;96.60
35463;DHT22;21578;47.892;9.970;2023-09-08T21:38:54;21.00;96.60
35463;DHT22;21578;47.892;9.970;2023-09-08T21:43:41;20.90;96.60
35463;DHT22;21578;47.892;9.970;2023-09-08T21:48:27;20.90;96.60
35463;DHT22;21578;47.892;9.970;2023-09-08T21:53:14;20.80;96.60
35463;DHT22;21578;47.892;9.970;2023-09-08T21:58:04;20.80;96.60
35463;DHT22;21578;47.892;9.970;2023-09-08T22:02:51;20.70;96.60
35463;DHT22;21578;47.892;9.970;2023-09-08T22:07:38;20.60;96.60
35463;DHT22;21578;47.892;9.970;2023-09-08T22:12:25;20.50;96.60
35463;DHT22;21578;47.892;9.970;2023-09-08T22:17:13;20.40;96.60
35463;DHT22;21578;47.892;9.970;2023-09-08T22:22:00;20.40;96.60
35463;DHT22;21578;47.892;9.970;2023-09-08T22:26:48;20.40;96.60
35463;DHT22;21578;47.892;9.970;2023-09-08T22:31:35;20.40;96.60
35463;DHT22;21578;47.892;9.970;2023-09-08T22:36:23;20.30;96.60
35463;DHT22;21578;47.892;9.970;2023-09-08T22:41:10;20.30;96.60
35463;DHT22;21578;47.892;9.970;2023-09-08T22:45:57;20.30;96.60
35463;DHT22;21578;47.892;9.970;2023-09-08T22:50:44;20.40;96.60
35463;DHT22;21578;47.892;9.970;2023-09-08T22:55:33;20.40;96.60
35463;DHT22;21578;47.892;9.970;2023-09-08T23:00:20;20.30;96.60
35463;DHT22;21578;47.892;9.970;2023-09-08T23:05:07;20.30;96.60
35463;DHT22;21578;47.892;9.970;2023-09-08T23:09:55;20.30;96.60
35463;DHT22;21578;47.892;9.970;2023-09-08T23:14:43;20.20;96.60
35463;DHT22;21578;47.892;9.970;2023-09-08T23:19:30;20.10;96.60
35463;DHT22;21578;47.892;9.970;2023-09-08T23:24:17;20.10;96.60
35463;DHT22;21578;47.892;9.970;2023-09-08T23:29:04;20.10;96.60
35463;DHT22;21578;47.892;9.970;2023-09-08T23:33:53;20.10;96.60
35463;DHT22;21578;47.892;9.970;2023-09-08T23:38:40;20.00;96.60
35463;DHT22;21578;47.892;9.970;2023-09-08T23:43:26;20.00;96.60
35463;DHT22;21578;47.892;9.970;2023-09-08T23:48:13;19.90;96.60
35463;DHT22;21578;47.892;9.970;2023-09-08T23:53:02;19.90;96.60
35463;DHT22;21578;47.892;9.970;2023-09-08T23:57:49;19.80;96.60
